Latest Weather Observations for Tasman Island

IDT60901

Issued at 10:51 am EDT Wednesday 16 January 2019 (issued every 10 minutes, with the page automatically refreshed every 10 minutes)

About weather observations | Map of Hobart area stations | Latest observations for Hobart area | Other Formats
Station Details ID: 094155 Name: TASMAN ISLAND Lat: -43.24 Lon: 148.00 Height: 240.0 m
Data from the previous 72 hours. | See also: Recent months at Tasman Island
Date/Time
EDT
Temp
°C
App
Temp
°C
Dew
Point
°C
Rel
Hum
%
Delta-T
°C
Wind Press
QNH
hPa
Press
MSL
hPa
Rain since
9am
mm
Dir  Spd
km/h
Gust
km/h
Spd
kts
Gust
kts
16/10:30am 14.9 11.3 10.7 76 2.2 SSW 20 30 11 16 1012.1 1011.8 0.0
16/10:00am 15.2 11.4 11.0 76 2.3 SSW 22 32 12 17 1011.7 1011.4 0.0
16/09:30am 15.2 11.6 10.6 74 2.5 SSW 20 35 11 19 1011.6 1011.3 0.0
16/09:00am 14.6 11.2 10.4 76 2.2 SW 19 28 10 15 1011.4 1011.1 0.0
16/08:30am 14.7 11.1 9.9 73 2.5 SSW 19 28 10 15 1011.1 1010.8 0.0
16/08:00am 14.6 11.7 9.6 72 2.6 SW 15 30 8 16 1010.6 1010.2 0.0
16/07:30am 14.2 10.9 9.4 73 2.5 SW 17 28 9 15 1010.3 1009.9 0.0
16/07:00am 13.7 9.4 9.4 75 2.2 SSW 22 37 12 20 1009.6 1009.3 0.0
16/06:30am 13.8 8.8 9.5 75 2.2 SSW 26 41 14 22 1009.1 1008.8 0.0
16/06:09am 13.5 8.2 9.7 78 2.0 SW 28 46 15 25 1008.9 1008.6 0.0
16/06:00am 13.6 8.8 10.2 80 1.8 SSW 26 46 14 25 1009.2 1008.9 0.0
16/05:32am 13.6 7.6 10.8 83 1.5 SW 33 54 18 29 1008.9 1008.6 0.0
16/05:30am 13.6 7.2 10.8 83 1.5 SW 35 54 19 29 1008.9 1008.6 0.0
16/05:26am 13.6 6.4 10.6 82 1.6 SW 39 57 21 31 1008.7 1008.4 0.0
16/05:00am 13.7 5.7 10.3 80 1.8 SW 43 57 23 31 1008.4 1008.1 0.0
16/04:30am 13.8 7.0 10.8 82 1.6 SW 37 54 20 29 1008.3 1008.0 0.0
16/04:00am 13.9 7.7 11.4 85 1.3 SW 35 56 19 30 1008.2 1007.9 0.0
16/03:30am 14.1 8.2 12.5 90 0.9 SW 35 54 19 29 1008.1 1007.8 0.0
16/03:00am 14.3 8.7 13.3 94 0.6 SSW 35 63 19 34 1008.0 1007.7 0.0
16/02:30am 14.6 8.5 14.0 96 0.3 SW 39 69 21 37 1007.8 1007.5 0.0
16/02:04am 15.0 9.8 14.5 97 0.3 SW 35 54 19 29 1007.8 1007.5 0.0
16/02:00am 15.1 10.3 14.6 97 0.3 SW 33 50 18 27 1007.7 1007.4 0.0
16/01:34am 15.3 10.5 14.7 96 0.3 SW 33 54 18 29 1007.9 1007.6 0.0
16/01:30am 15.4 10.7 14.8 96 0.3 SW 33 50 18 27 1008.0 1007.7 0.0
16/01:00am 15.8 10.9 15.2 96 0.4 SW 35 52 19 28 1008.1 1007.8 0.0
16/12:30am 16.2 13.2 14.7 91 0.9 SW 24 39 13 21 1008.0 1007.7 0.0
16/12:00am 15.8 13.3 14.2 90 0.9 SW 20 28 11 15 1008.0 1007.7 0.0
 
Date/Time
EDT
Temp
°C
App
Temp
°C
Dew
Point
°C
Rel
Hum
%
Delta-T
°C
Wind Press
QNH
hPa
Press
MSL
hPa
Rain since
9am
mm
Dir  Spd
km/h
Gust
km/h
Spd
kts
Gust
kts
15/11:30pm 15.8 13.9 13.1 84 1.5 SW 15 20 8 11 1007.6 1007.3 0.0
15/11:00pm 16.5 15.5 11.0 70 3.0 SSW 7 11 4 6 1007.2 1006.9 0.0
15/10:30pm 17.3 15.1 9.5 60 4.1 SSE 11 17 6 9 1007.3 1007.0 0.0
15/10:00pm 17.6 15.9 10.0 61 4.1 SSE 9 15 5 8 1007.0 1006.6 0.0
15/09:30pm 17.5 16.0 10.6 64 3.7 SSE 9 13 5 7 1007.2 1006.9 0.0
15/09:00pm 17.5 15.0 9.7 60 4.2 SSE 13 19 7 10 1006.9 1006.5 0.0
15/08:30pm 18.0 15.8 9.4 57 4.6 SSE 11 19 6 10 1006.9 1006.5 0.0
15/08:09pm 18.0 14.1 8.6 54 4.9 E 19 35 10 19 1005.9 1005.5 0.0
15/08:00pm 17.6 13.7 9.5 59 4.3 E 20 39 11 21 1003.6 1003.3 0.0
15/07:56pm 17.7 14.3 9.3 58 4.4 E 17 35 9 19 1003.3 1002.9 0.0
15/07:53pm 18.2 14.8 9.3 56 4.7 ESE 17 26 9 14 1006.0 1005.6 0.0
15/07:30pm 17.7 16.2 11.9 69 3.2 S 11 15 6 8 1008.0 1007.7 0.0
15/07:00pm 17.6 15.7 12.9 74 2.7 SSW 15 19 8 10 1007.0 1006.6 0.0
15/06:30pm 19.9 17.9 7.3 44 6.5 SSE 7 13 4 7 1006.4 1006.0 0.0
15/06:00pm 19.9 18.6 9.2 50 5.7 SE 6 9 3 5 1006.7 1006.3 0.0
15/05:30pm 20.3 18.4 9.2 49 5.9 ESE 9 13 5 7 1006.6 1006.2 0.0
15/05:00pm 20.4 18.9 9.3 49 6.0 E 7 13 4 7 1006.8 1006.4 0.0
15/04:30pm 21.1 19.7 9.4 47 6.3 SE 7 11 4 6 1007.0 1006.6 0.0
15/04:00pm 20.9 19.6 11.3 54 5.4 S 9 13 5 7 1007.6 1007.3 0.0
15/03:30pm 20.7 19.9 13.9 65 4.0 ESE 11 17 6 9 1007.0 1006.6 0.0
15/03:00pm 21.4 20.4 12.3 56 5.2 SE 9 13 5 7 1008.1 1007.8 0.0
15/02:30pm 20.6 19.1 10.4 52 5.6 SSE 9 11 5 6 1008.9 1008.6 0.0
15/02:00pm 21.5 21.5 14.2 63 4.3 WSW 7 13 4 7 1009.7 1009.4 0.0
15/01:30pm 22.5 21.5 13.3 56 5.4 SW 11 15 6 8 1009.4 1009.1 0.0
15/01:00pm 23.0 21.7 11.1 47 6.7 SW 9 15 5 8 1009.3 1009.0 0.0
15/12:30pm 22.4 21.4 13.5 57 5.2 SW 11 13 6 7 1009.5 1009.2 0.0
15/12:00pm 22.8 22.7 14.9 61 4.7 SW 9 13 5 7 1009.5 1009.2 0.0
15/11:30am 22.3 22.9 15.2 64 4.3 WSW 6 9 3 5 1009.7 1009.4 0.0
15/11:00am 19.4 20.9 16.6 84 1.7 SW 4 6 2 3 1010.2 1009.8 0.0
15/10:30am 19.7 21.1 16.5 82 1.9 WSW 4 9 2 5 1010.4 1010.0 0.0
15/10:00am 18.9 20.2 17.0 89 1.2 WSW 6 9 3 5 1010.8 1010.5 0.0
15/09:30am 18.7 20.2 18.0 96 0.4 WSW 7 11 4 6 1010.7 1010.4 0.0
15/09:00am 18.3 19.8 18.0 98 0.2 WSW 7 11 4 6 1011.1 1010.8 0.0
15/08:30am 18.1 19.5 17.9 99 0.1 WSW 7 9 4 5 1011.0 1010.7 0.0
15/08:00am 18.8 21.1 18.6 99 0.1 NNE 4 11 2 6 1010.9 1010.6 0.0
15/07:30am 18.7 20.5 18.7 100 0.0 N 7 13 4 7 1010.8 1010.5 0.0
15/07:00am 17.9 19.3 17.9 100 0.0 NW 7 17 4 9 1010.7 1010.4 0.0
15/06:30am 17.4 15.4 17.4 100 0.0 N 24 33 13 18 1010.7 1010.4 0.0
15/06:00am 17.3 16.2 17.3 100 0.0 NNE 19 28 10 15 1010.4 1010.0 0.0
15/05:30am 17.4 16.2 17.4 100 0.0 NNE 20 30 11 16 1010.4 1010.0 0.0
15/05:00am 17.4 16.2 17.4 100 0.0 NNE 20 33 11 18 1010.5 1010.1 0.0
15/04:30am 17.4 15.4 17.4 100 0.0 NNE 24 32 13 17 1010.9 1010.6 0.0
15/04:00am 17.2 16.0 17.0 99 0.1 NNE 19 32 10 17 1011.2 1010.9 0.0
15/03:30am 17.2 13.9 17.0 99 0.1 NNE 30 41 16 22 1011.3 1011.0 0.0
15/03:00am 17.2 15.0 17.0 99 0.1 NNE 24 33 13 18 1011.5 1011.2 0.0
15/02:30am 17.1 14.9 16.9 99 0.1 NNE 24 28 13 15 1012.2 1011.9 0.0
15/02:00am 17.0 13.2 16.8 99 0.1 N 32 43 17 23 1012.3 1012.0 0.0
15/01:30am 16.9 12.9 16.7 99 0.1 N 33 44 18 24 1012.4 1012.1 0.0
15/01:11am 16.9 12.1 16.7 99 0.1 N 37 56 20 30 1012.5 1012.2 0.0
15/01:00am 16.9 11.4 16.7 99 0.1 NNE 41 57 22 31 1011.1 1010.8 0.0
15/12:30am 16.9 12.5 16.7 99 0.1 NNE 35 50 19 27 1012.8 1012.5 0.0
15/12:00am 16.7 10.7 16.5 99 0.1 NNE 43 56 23 30 1012.6 1012.3 0.0
 
Date/Time
EDT
Temp
°C
App
Temp
°C
Dew
Point
°C
Rel
Hum
%
Delta-T
°C
Wind Press
QNH
hPa
Press
MSL
hPa
Rain since
9am
mm
Dir  Spd
km/h
Gust
km/h
Spd
kts
Gust
kts
14/11:31pm 16.8 9.9 16.6 99 0.1 NNE 48 67 26 36 1012.3 1012.0 0.0
14/11:30pm 16.8 9.9 16.6 99 0.1 NNE 48 65 26 35 1012.3 1012.0 0.0
14/11:03pm 16.7 10.7 16.4 98 0.2 NNE 43 61 23 33 1012.9 1012.6 0.0
14/11:00pm 16.7 10.5 16.4 98 0.2 NNE 44 59 24 32 1013.2 1012.9 0.0
14/10:30pm 16.5 12.2 16.0 97 0.3 NNE 33 57 18 31 1014.0 1013.7 0.0
14/10:26pm 16.6 13.3 16.1 97 0.3 NNE 28 50 15 27 1014.0 1013.7 0.0
14/10:16pm 16.7 14.2 16.1 96 0.4 NNE 24 39 13 21 1013.7 1013.4 0.0
14/10:00pm 16.8 17.0 15.8 94 0.6 N 9 15 5 8 1015.9 1015.6 0.0
14/09:30pm 16.7 13.8 16.1 96 0.4 N 26 48 14 26 1015.9 1015.6 0.0
14/09:16pm 16.8 11.8 16.0 95 0.5 NNE 37 56 20 30 1015.3 1015.0 0.0
14/09:00pm 16.9 10.5 15.9 94 0.6 NNE 44 63 24 34 1014.7 1014.4 0.0
14/08:34pm 16.8 11.3 15.8 94 0.6 NNE 39 59 21 32 1014.0 1013.7 0.0
14/08:30pm 16.8 11.3 15.8 94 0.6 NNE 39 54 21 29 1014.3 1014.1 0.0
14/08:00pm 16.7 11.1 15.6 93 0.6 NNE 39 52 21 28 1014.7 1014.4 0.0
14/07:30pm 16.9 11.2 15.2 90 1.0 NNE 39 52 21 28 1014.2 1014.0 0.0
14/07:03pm 17.3 12.7 15.1 87 1.3 NNE 33 54 18 29 1014.9 1014.6 0.0
14/07:00pm 17.3 12.3 15.1 87 1.3 NNE 35 52 19 28 1015.1 1014.8 0.0
14/06:41pm 17.5 12.8 14.8 84 1.6 NNE 33 52 18 28 1015.0 1014.7 0.0
14/06:30pm 17.6 12.5 14.9 84 1.6 NNE 35 52 19 28 1014.9 1014.6 0.0
14/06:00pm 17.6 12.4 14.5 82 1.8 NNE 35 48 19 26 1014.8 1014.5 0.0
14/05:33pm 17.6 13.3 14.3 81 1.9 NNE 30 50 16 27 1015.1 1014.8 0.0
14/05:30pm 17.5 13.1 14.2 81 1.9 NNE 30 46 16 25 1015.3 1015.0 0.0
14/05:10pm 17.6 13.2 14.1 80 2.0 NNE 30 50 16 27 1015.4 1015.1 0.0
14/05:00pm 17.8 13.3 13.9 78 2.2 NNE 30 44 16 24 1015.5 1015.2 0.0
14/04:30pm 18.0 13.2 13.9 77 2.4 NNE 32 43 17 23 1015.9 1015.6 0.0
14/04:00pm 17.7 12.8 13.6 77 2.3 NNE 32 44 17 24 1016.1 1015.8 0.0
14/03:30pm 18.2 13.0 13.3 73 2.8 NNE 33 46 18 25 1016.1 1015.8 0.0
14/03:00pm 18.0 12.6 12.9 72 2.9 NNE 33 57 18 31 1015.9 1015.6 0.0
14/02:36pm 18.1 12.5 13.2 73 2.8 NNE 35 54 19 29 1016.4 1016.1 0.0
14/02:30pm 18.1 12.5 13.2 73 2.8 NNE 35 50 19 27 1016.4 1016.1 0.0
14/02:00pm 18.1 12.5 13.2 73 2.8 NNE 35 46 19 25 1016.6 1016.3 0.0
14/01:30pm 18.5 12.9 13.4 72 2.9 NNE 35 44 19 24 1016.7 1016.4 0.0
14/01:00pm 17.9 12.5 12.8 72 2.9 NNE 33 46 18 25 1017.0 1016.7 0.0
14/12:30pm 18.4 13.5 12.6 69 3.3 NNE 30 46 16 25 1017.3 1017.0 0.0
14/12:00pm 18.2 14.5 12.6 70 3.2 NNE 24 35 13 19 1017.7 1017.4 0.0
14/11:30am 18.9 15.5 12.4 66 3.7 NNE 22 35 12 19 1018.0 1017.8 0.0
14/11:00am 18.5 15.2 10.8 61 4.2 NNE 19 26 10 14 1018.2 1018.0 0.0
14/10:30am 17.9 15.1 11.5 66 3.5 NNE 17 28 9 15 1018.6 1018.4 0.0
14/10:00am 17.6 15.0 11.9 69 3.2 NNE 17 26 9 14 1019.0 1018.7 0.0
14/09:30am 17.3 14.1 11.3 68 3.3 NNE 19 26 10 14 1019.3 1019.0 0.0
14/09:00am 17.3 15.0 11.6 69 3.1 NNE 15 24 8 13 1019.6 1019.3 0.0
14/08:30am 16.8 14.3 12.3 75 2.5 NNE 17 24 9 13 1019.6 1019.3 0.0
14/08:00am 16.4 13.4 12.0 75 2.4 N 19 26 10 14 1019.5 1019.2 0.0
14/07:30am 15.8 13.0 12.7 82 1.7 NNE 19 28 10 15 1019.6 1019.3 0.0
14/07:00am 15.5 12.5 12.6 83 1.6 N 20 26 11 14 1019.7 1019.4 0.0
14/06:30am 15.1 12.1 12.6 85 1.4 N 20 32 11 17 1019.5 1019.2 0.0
14/06:00am 14.8 11.8 12.7 87 1.2 N 20 30 11 16 1019.4 1019.1 0.0
14/05:30am 14.9 10.3 12.4 85 1.4 N 28 35 15 19 1019.2 1018.9 0.0
14/05:00am 14.8 9.5 12.5 86 1.3 N 32 44 17 24 1019.1 1018.8 0.0
14/04:30am 15.0 10.9 12.7 86 1.3 N 26 39 14 21 1019.2 1018.9 0.0
14/04:00am 15.0 9.7 12.5 85 1.4 NNE 32 44 17 24 1019.2 1018.9 0.0
14/03:30am 14.9 9.8 12.0 83 1.6 N 30 44 16 24 1019.5 1019.2 0.0
14/03:00am 15.1 9.1 12.2 83 1.6 N 35 52 19 28 1019.6 1019.3 0.0
14/02:34am 15.1 9.1 12.1 82 1.6 N 35 59 19 32 1020.0 1019.7 0.0
14/02:30am 15.0 9.4 12.1 83 1.6 N 33 50 18 27 1020.0 1019.7 0.0
14/02:16am 15.0 9.5 12.5 85 1.4 N 33 52 18 28 1020.1 1019.8 0.0
14/02:00am 15.2 8.3 12.9 86 1.3 N 41 56 22 30 1020.0 1019.7 0.0
14/01:34am 15.3 7.8 12.8 85 1.4 NNE 44 65 24 35 1020.4 1020.1 0.0
14/01:30am 15.3 7.9 13.0 86 1.3 NNE 44 61 24 33 1020.5 1020.2 0.0
14/01:00am 15.2 6.7 13.2 88 1.1 NNE 50 63 27 34 1020.7 1020.4 0.0
14/12:30am 15.1 6.9 13.0 87 1.2 NNE 48 61 26 33 1021.2 1020.9 0.0
14/12:00am 15.1 7.3 13.0 87 1.2 NNE 46 57 25 31 1021.5 1021.3 0.0
 
Date/Time
EDT
Temp
°C
App
Temp
°C
Dew
Point
°C
Rel
Hum
%
Delta-T
°C
Wind Press
QNH
hPa
Press
MSL
hPa
Rain since
9am
mm
Dir  Spd
km/h
Gust
km/h
Spd
kts
Gust
kts
13/11:30pm 15.1 7.7 13.1 88 1.1 NNE 44 59 24 32 1021.9 1021.7 0.0
13/11:00pm 15.0 9.6 12.7 86 1.3 NNE 33 54 18 29 1022.4 1022.2 0.0
13/10:47pm 15.1 10.2 12.6 85 1.4 NNE 30 50 16 27 1022.5 1022.3 0.0
13/10:30pm 15.0 9.6 12.3 84 1.5 NNE 32 46 17 25 1022.9 1022.7 0.0
13/10:00pm 14.9 9.9 12.2 84 1.5 NNE 30 41 16 22 1023.2 1022.9 0.0
13/09:30pm 14.9 9.9 12.2 84 1.5 NNE 30 43 16 23 1023.3 1023.0 0.0
13/09:00pm 14.8 10.8 11.9 83 1.6 NNE 24 41 13 22 1023.4 1023.1 0.0
13/08:30pm 14.8 11.8 12.1 84 1.5 NE 19 35 10 19 1023.4 1023.1 0.0
13/08:00pm 15.0 12.4 12.0 82 1.6 NE 17 35 9 19 1023.3 1023.0 0.0
13/07:30pm 15.2 12.9 11.6 79 2.0 NE 15 35 8 19 1023.4 1023.1 0.0
13/07:00pm 15.2 13.2 11.4 78 2.1 NNE 13 30 7 16 1023.5 1023.2 0.0
13/06:30pm 15.7 12.7 10.7 72 2.7 NE 17 33 9 18 1023.4 1023.1 0.0
13/06:00pm 15.7 13.7 10.2 70 2.9 NE 11 24 6 13 1023.4 1023.1 0.0
13/05:30pm 15.3 13.3 10.3 72 2.7 N 11 22 6 12 1023.6 1023.3 0.0
13/05:00pm 15.5 13.4 9.6 68 3.1 E 11 24 6 13 1023.8 1023.5 0.0
13/04:30pm 15.7 13.9 9.4 66 3.3 ESE 9 24 5 13 1024.0 1023.7 0.0
13/04:00pm 15.4 13.2 9.3 67 3.2 E 11 24 6 13 1024.1 1023.8 0.0
13/03:30pm 15.7 11.8 8.7 63 3.6 E 19 24 10 13 1024.2 1023.9 0.0
13/03:00pm 16.1 13.0 8.8 62 3.8 E 15 22 8 12 1024.4 1024.1 0.0
13/02:30pm 15.9 12.8 8.9 63 3.6 E 15 20 8 11 1024.6 1024.3 0.0
13/02:00pm 15.7 12.6 8.7 63 3.6 E 15 20 8 11 1024.7 1024.4 0.0
13/01:30pm 16.3 13.5 8.5 60 4.0 E 13 19 7 10 1024.8 1024.5 0.0
13/01:00pm 16.5 14.1 8.5 59 4.1 E 11 17 6 9 1024.7 1024.4 0.0
13/12:30pm 16.9 14.5 8.8 59 4.2 E 11 15 6 8 1024.7 1024.4 0.0
13/12:00pm 17.1 15.1 8.5 57 4.4 E 9 17 5 9 1024.8 1024.5 0.0
13/11:30am 15.1 12.0 7.4 60 3.9 ESE 13 17 7 9 1025.1 1024.9 0.0
13/11:00am 15.4 12.9 8.2 62 3.7 ESE 11 17 6 9 1025.0 1024.8 0.0

Latest Capital City Observations: Canberra | Sydney | Melbourne | Brisbane | Adelaide | Perth | Hobart | Darwin

Other Formats:

Comma delimited format used in spreadsheet applications
http://www.bom.gov.au/fwo/IDT60901/IDT60901.95986.axf

JavaScript Object Notation format (JSON) in row-major order
http://www.bom.gov.au/fwo/IDT60901/IDT60901.95986.json